createdAt,value
2018-05-16T00:03:33.241Z,83.11
2018-05-16T00:08:26.539Z,83.30
2018-05-16T00:13:19.872Z,83.51
2018-05-16T00:18:13.954Z,82.85
2018-05-16T00:23:08.053Z,82.63
2018-05-16T00:28:02.124Z,82.82
2018-05-16T00:32:55.430Z,82.30
2018-05-16T00:37:49.513Z,82.85
2018-05-16T00:42:43.573Z,81.91
2018-05-16T00:47:36.880Z,82.30
2018-05-16T00:52:31.091Z,82.85
2018-05-16T00:57:25.153Z,82.77
2018-05-16T01:02:18.454Z,83.30
2018-05-16T01:07:12.515Z,82.79
2018-05-16T01:12:05.847Z,83.17
2018-05-16T01:16:59.174Z,83.38
2018-05-16T01:21:52.461Z,83.66
2018-05-16T01:26:45.764Z,83.51
2018-05-16T01:31:39.866Z,83.80
2018-05-16T01:36:33.924Z,83.44
2018-05-16T01:41:27.233Z,82.79
2018-05-16T01:46:20.520Z,82.09
2018-05-16T01:51:13.819Z,82.42
2018-05-16T01:56:07.114Z,82.62
2018-05-16T02:01:01.181Z,82.47
2018-05-16T02:05:54.477Z,82.82
2018-05-16T02:10:47.785Z,82.91
2018-05-16T02:15:41.077Z,83.60
2018-05-16T02:20:35.154Z,84.00
2018-05-16T02:25:28.427Z,83.55
2018-05-16T02:30:21.721Z,83.27
2018-05-16T02:35:15.037Z,82.72
2018-05-16T02:40:08.340Z,81.02
2018-05-16T02:45:01.637Z,81.80
2018-05-16T02:49:54.951Z,81.98
2018-05-16T02:54:49.004Z,81.62
2018-05-16T02:59:42.318Z,81.67
2018-05-16T03:04:36.377Z,82.96
2018-05-16T03:09:29.723Z,82.04
2018-05-16T03:14:23.043Z,82.29
2018-05-16T03:19:17.103Z,82.04
2018-05-16T03:24:10.421Z,81.98
2018-05-16T03:29:03.793Z,82.04
2018-05-16T03:33:57.061Z,82.59
2018-05-16T03:38:50.383Z,82.18
2018-05-16T03:43:43.680Z,81.73
2018-05-16T03:48:36.992Z,82.20
2018-05-16T03:53:30.291Z,82.50
2018-05-16T03:58:41.990Z,82.30
2018-05-16T04:03:52.795Z,82.20
2018-05-16T04:08:46.132Z,82.05
2018-05-16T04:13:39.447Z,82.83
2018-05-16T04:18:33.538Z,83.28
2018-05-16T04:23:27.640Z,81.31
2018-05-16T04:28:21.695Z,81.05
2018-05-16T04:33:14.997Z,82.02
2018-05-16T04:38:09.043Z,81.62
2018-05-16T04:43:02.350Z,82.65
2018-05-16T04:47:55.634Z,83.56
2018-05-16T04:52:48.986Z,83.38
2018-05-16T04:57:43.026Z,84.39
2018-05-16T05:02:37.092Z,84.33
2018-05-16T05:07:30.405Z,84.87
2018-05-16T05:12:24.458Z,84.70
2018-05-16T05:17:17.768Z,84.86
2018-05-16T05:22:11.843Z,84.95
2018-05-16T05:27:05.143Z,84.33
2018-05-16T05:31:58.453Z,83.89
2018-05-16T05:36:51.800Z,83.26
2018-05-16T05:41:45.903Z,82.81
2018-05-16T05:46:39.958Z,80.99
2018-05-16T05:51:33.259Z,81.12
2018-05-16T05:56:27.350Z,80.41
2018-05-16T06:01:21.420Z,80.62
2018-05-16T06:06:14.730Z,80.41
2018-05-16T06:11:08.804Z,80.61
2018-05-16T06:16:02.886Z,81.03
2018-05-16T06:20:56.201Z,82.59
2018-05-16T06:25:50.291Z,83.46
2018-05-16T06:30:44.356Z,82.83
2018-05-16T06:35:37.691Z,83.64
2018-05-16T06:40:30.973Z,82.97
2018-05-16T06:45:24.267Z,83.55
2018-05-16T06:50:17.604Z,83.88
2018-05-16T06:55:10.904Z,84.31
2018-05-16T07:00:04.199Z,84.50
2018-05-16T07:04:57.516Z,84.78
2018-05-16T07:09:50.813Z,84.45
2018-05-16T07:14:44.897Z,84.24
2018-05-16T07:19:38.942Z,84.91
2018-05-16T07:24:32.262Z,85.18
2018-05-16T07:29:25.576Z,85.33
2018-05-16T07:34:18.895Z,85.31
2018-05-16T07:39:12.223Z,85.34
2018-05-16T07:44:05.528Z,85.36
2018-05-16T07:48:58.825Z,85.52
2018-05-16T07:53:52.139Z,85.06
2018-05-16T07:58:46.187Z,84.86
2018-05-16T08:03:39.494Z,84.16
2018-05-16T08:08:34.332Z,82.59
2018-05-16T08:13:27.596Z,82.00
2018-05-16T08:18:20.889Z,82.36
2018-05-16T08:23:14.212Z,82.52
2018-05-16T08:28:07.635Z,82.82
2018-05-16T08:33:01.724Z,83.83
2018-05-16T08:37:55.014Z,84.36
2018-05-16T08:42:48.306Z,84.44
2018-05-16T08:47:41.602Z,84.04
2018-05-16T08:52:34.921Z,83.68
2018-05-16T08:57:28.239Z,82.72
2018-05-16T09:02:21.545Z,81.92
2018-05-16T09:07:14.891Z,80.75
2018-05-16T09:12:08.174Z,80.30
2018-05-16T09:17:01.509Z,78.30
2018-05-16T09:21:55.558Z,79.87
2018-05-16T09:26:48.871Z,78.08
2018-05-16T09:31:42.155Z,76.59
2018-05-16T09:36:36.236Z,77.43
2018-05-16T09:41:29.536Z,77.13
2018-05-16T09:46:23.612Z,75.85
2018-05-16T09:51:16.906Z,75.18
2018-05-16T09:56:11.007Z,76.96
2018-05-16T10:01:05.093Z,76.57
2018-05-16T10:05:59.131Z,78.92
2018-05-16T10:10:52.423Z,79.98
2018-05-16T10:15:45.803Z,78.30
2018-05-16T10:20:39.095Z,79.88
2018-05-16T10:25:32.405Z,77.46
2018-05-16T10:30:26.470Z,76.84
2018-05-16T10:35:19.772Z,78.13
2018-05-16T10:40:13.837Z,79.09
2018-05-16T10:45:07.135Z,79.65
2018-05-16T10:50:01.204Z,78.82
2018-05-16T10:54:54.474Z,80.56
2018-05-16T10:59:47.770Z,81.13
2018-05-16T11:04:41.094Z,81.12
2018-05-16T11:09:34.421Z,81.95
2018-05-16T11:14:27.723Z,82.73
2018-05-16T11:19:21.050Z,82.16
2018-05-16T11:24:15.188Z,83.24
2018-05-16T11:29:09.256Z,81.78
2018-05-16T11:34:04.191Z,81.00
2018-05-16T11:38:57.525Z,82.37
2018-05-16T11:43:50.825Z,82.26
2018-05-16T11:48:44.185Z,82.35
2018-05-16T11:53:37.444Z,82.37
2018-05-16T11:58:30.718Z,82.77
2018-05-16T12:03:24.014Z,80.74
2018-05-16T12:08:17.341Z,81.30
2018-05-16T12:13:11.406Z,80.48
2018-05-16T12:18:04.690Z,79.02
2018-05-16T12:22:57.987Z,79.16
2018-05-16T12:27:52.124Z,80.37
2018-05-16T12:32:45.426Z,81.59
2018-05-16T12:37:38.764Z,82.56
2018-05-16T12:42:32.058Z,80.81
2018-05-16T12:47:25.342Z,80.28
2018-05-16T12:52:18.668Z,81.21
2018-05-16T12:57:12.706Z,81.75
2018-05-16T13:02:06.006Z,82.00
2018-05-16T13:12:22.186Z,82.41
2018-05-16T13:17:16.226Z,82.79
2018-05-16T13:22:09.583Z,82.91
2018-05-16T13:27:02.892Z,81.84
2018-05-16T13:31:56.200Z,81.64
2018-05-16T13:36:49.825Z,81.54
2018-05-16T13:41:43.155Z,81.00
2018-05-16T13:46:36.456Z,80.08
2018-05-16T13:51:30.516Z,81.34
2018-05-16T13:56:23.815Z,82.32
2018-05-16T14:01:17.899Z,83.34
2018-05-16T14:06:11.212Z,83.63
2018-05-16T14:11:04.506Z,83.25
2018-05-16T14:15:57.790Z,82.99
2018-05-16T14:20:51.096Z,84.21
2018-05-16T14:25:44.392Z,83.54
2018-05-16T14:30:37.737Z,84.65
2018-05-16T14:35:31.043Z,84.59
2018-05-16T14:40:24.343Z,83.54
2018-05-16T14:45:18.418Z,83.59
2018-05-16T14:50:11.724Z,83.92
2018-05-16T14:55:05.031Z,84.43
2018-05-16T14:59:58.315Z,82.78
2018-05-16T15:04:51.603Z,82.11
2018-05-16T15:09:44.918Z,82.66
2018-05-16T15:14:38.983Z,81.82
2018-05-16T15:19:32.290Z,82.72
2018-05-16T15:24:26.335Z,83.02
2018-05-16T15:29:19.652Z,83.04
2018-05-16T15:34:13.712Z,84.02
2018-05-16T15:39:06.994Z,82.26
2018-05-16T15:44:00.302Z,82.00
2018-05-16T15:48:54.379Z,81.98
2018-05-16T15:53:47.683Z,81.69
2018-05-16T15:58:41.763Z,83.23
2018-05-16T16:03:35.048Z,83.05
2018-05-16T16:08:29.158Z,82.91
2018-05-16T16:13:22.480Z,83.11
2018-05-16T16:18:15.851Z,83.91
2018-05-16T16:23:09.158Z,83.07
2018-05-16T16:28:02.474Z,84.17
2018-05-16T16:32:55.779Z,84.77
2018-05-16T16:37:49.090Z,85.54
2018-05-16T16:42:42.484Z,85.74
2018-05-16T16:47:36.553Z,86.12
2018-05-16T16:52:29.868Z,86.21
2018-05-16T16:57:23.956Z,86.15
2018-05-16T17:02:18.021Z,85.50
2018-05-16T17:07:11.336Z,84.02
2018-05-16T17:12:05.428Z,84.44
2018-05-16T17:16:58.742Z,83.66
2018-05-16T17:21:55.117Z,84.40
2018-05-16T17:26:48.455Z,84.39
2018-05-16T17:31:42.518Z,82.41
2018-05-16T17:36:36.583Z,85.32
2018-05-16T17:41:29.911Z,85.26
2018-05-16T17:46:23.239Z,85.82
2018-05-16T17:51:16.551Z,85.14
2018-05-16T17:56:10.617Z,84.28
2018-05-16T18:01:03.931Z,86.17
2018-05-16T18:05:57.235Z,86.08
2018-05-16T18:10:50.551Z,86.08
2018-05-16T18:16:01.492Z,86.17
2018-05-16T18:20:54.706Z,85.73
2018-05-16T18:25:48.037Z,86.45
2018-05-16T18:30:41.417Z,87.11
2018-05-16T18:35:34.757Z,87.10
2018-05-16T18:40:28.104Z,86.78
2018-05-16T18:45:21.448Z,87.40
2018-05-16T18:50:14.745Z,87.26
2018-05-16T18:55:08.105Z,87.20
2018-05-16T19:00:01.410Z,86.88
2018-05-16T19:04:55.523Z,87.79
2018-05-16T19:09:48.829Z,88.06
2018-05-16T19:14:42.906Z,87.79
2018-05-16T19:19:36.251Z,87.60
2018-05-16T19:24:29.555Z,88.15
2018-05-16T19:29:22.860Z,88.26
2018-05-16T19:34:16.945Z,88.28
2018-05-16T19:39:10.256Z,88.23
2018-05-16T19:44:03.564Z,88.11
2018-05-16T19:48:56.873Z,87.88
2018-05-16T19:53:50.194Z,88.22
2018-05-16T19:58:43.507Z,87.76
2018-05-16T20:03:37.627Z,88.24
2018-05-16T20:08:31.697Z,88.38
2018-05-16T20:13:25.061Z,88.45
2018-05-16T20:18:18.335Z,88.66
2018-05-16T20:23:11.682Z,88.88
2018-05-16T20:28:04.991Z,88.98
2018-05-16T20:33:00.004Z,88.88
2018-05-16T20:37:53.346Z,88.75
2018-05-16T20:42:47.197Z,88.78
2018-05-16T20:47:40.829Z,88.84
2018-05-16T20:52:34.188Z,88.90
2018-05-16T20:57:28.275Z,88.87
2018-05-16T21:02:22.366Z,88.87
2018-05-16T21:07:16.537Z,88.61
2018-05-16T21:12:09.847Z,88.54
2018-05-16T21:17:03.993Z,88.72
2018-05-16T21:21:57.291Z,88.66
2018-05-16T21:26:50.601Z,88.58
2018-05-16T21:31:44.670Z,88.56
2018-05-16T21:36:37.975Z,88.65
2018-05-16T21:41:32.042Z,88.73
2018-05-16T21:46:25.339Z,88.73
2018-05-16T21:51:19.402Z,88.64
2018-05-16T21:56:12.717Z,88.69
2018-05-16T22:01:06.816Z,88.68
2018-05-16T22:06:00.888Z,88.67
2018-05-16T22:10:54.192Z,88.55
2018-05-16T22:15:48.254Z,88.43
2018-05-16T22:20:41.557Z,88.36
2018-05-16T22:25:35.709Z,88.36
2018-05-16T22:30:34.404Z,88.34
2018-05-16T22:35:33.110Z,88.33
2018-05-16T22:40:31.818Z,88.11
2018-05-16T22:50:49.822Z,88.04
2018-05-16T22:55:43.127Z,88.30
2018-05-16T23:00:37.182Z,88.14
2018-05-16T23:05:30.492Z,88.07
2018-05-16T23:10:23.788Z,87.91
2018-05-16T23:15:17.847Z,88.07
2018-05-16T23:20:11.165Z,88.35
2018-05-16T23:25:04.472Z,88.05
2018-05-16T23:29:57.794Z,88.14
2018-05-16T23:34:51.178Z,87.53
2018-05-16T23:39:45.253Z,87.83
2018-05-16T23:44:38.564Z,87.91
2018-05-16T23:49:32.712Z,87.81
2018-05-16T23:54:26.721Z,87.55
2018-05-16T23:59:20.810Z,87.86
